createdAt,value
2023-02-17T00:00:57.496Z,-2.60
2023-02-17T00:03:25.664Z,-2.65
2023-02-17T00:05:54.131Z,-2.66
2023-02-17T00:08:22.186Z,-2.67
2023-02-17T00:10:57.748Z,-2.73
2023-02-17T00:13:25.816Z,-2.75
2023-02-17T00:15:54.301Z,-2.77
2023-02-17T00:18:23.004Z,-2.80
2023-02-17T00:20:51.411Z,-2.77
2023-02-17T00:23:19.249Z,-2.76
2023-02-17T00:25:47.246Z,-2.75
2023-02-17T00:28:15.329Z,-2.73
2023-02-17T00:30:43.299Z,-2.72
2023-02-17T00:33:11.464Z,-2.73
2023-02-17T00:35:40.694Z,-2.69
2023-02-17T00:38:10.085Z,-2.67
2023-02-17T00:40:39.204Z,-2.64
2023-02-17T00:43:07.202Z,-2.61
2023-02-17T00:45:35.162Z,-2.59
2023-02-17T00:48:03.134Z,-2.56
2023-02-17T00:50:30.982Z,-2.54
2023-02-17T00:52:58.964Z,-2.51
2023-02-17T00:55:26.961Z,-2.48
2023-02-17T00:57:54.936Z,-2.46
2023-02-17T01:00:22.866Z,-2.44
2023-02-17T01:02:50.784Z,-2.41
2023-02-17T01:05:18.760Z,-2.39
2023-02-17T01:07:47.909Z,-2.36
2023-02-17T01:10:16.238Z,-2.35
2023-02-17T01:12:44.099Z,-2.33
2023-02-17T01:15:12.033Z,-2.28
2023-02-17T01:17:39.971Z,-2.26
2023-02-17T01:20:08.264Z,-2.25
2023-02-17T01:22:38.237Z,-2.21
2023-02-17T01:25:06.617Z,-2.18
2023-02-17T01:27:35.498Z,-2.17
2023-02-17T01:30:04.964Z,-2.13
2023-02-17T01:32:33.001Z,-2.09
2023-02-17T01:35:01.064Z,-2.07
2023-02-17T01:37:29.048Z,-2.11
2023-02-17T01:39:56.901Z,-2.11
2023-02-17T01:42:24.777Z,-2.11
2023-02-17T01:45:11.426Z,-2.10
2023-02-17T01:47:39.334Z,-2.06
2023-02-17T01:50:08.575Z,-2.00
2023-02-17T01:52:37.609Z,-1.92
2023-02-17T01:55:08.402Z,-1.91
2023-02-17T01:57:38.578Z,-1.90
2023-02-17T02:00:08.411Z,-1.87
2023-02-17T02:02:47.644Z,-1.89
2023-02-17T02:05:18.001Z,-1.91
2023-02-17T02:07:47.475Z,-1.91
2023-02-17T02:10:16.402Z,-1.93
2023-02-17T02:12:44.909Z,-1.95
2023-02-17T02:15:15.072Z,-1.97
2023-02-17T02:17:55.262Z,-1.99
2023-02-17T02:20:42.198Z,-2.02
2023-02-17T02:23:10.111Z,-2.08
2023-02-17T02:25:56.559Z,-2.12
2023-02-17T02:28:43.445Z,-2.15
2023-02-17T02:31:14.502Z,-2.18
2023-02-17T02:33:54.321Z,-2.20
2023-02-17T02:36:22.202Z,-2.23
2023-02-17T02:38:58.856Z,-2.26
2023-02-17T02:41:33.686Z,-2.28
2023-02-17T02:44:04.579Z,-2.30
2023-02-17T02:46:32.464Z,-2.32
2023-02-17T02:49:01.000Z,-2.32
2023-02-17T02:51:35.815Z,-2.32
2023-02-17T02:54:19.546Z,-2.30
2023-02-17T02:57:07.276Z,-2.29
2023-02-17T02:59:35.993Z,-2.29
2023-02-17T03:02:13.316Z,-2.28
2023-02-17T03:05:01.556Z,-2.27
2023-02-17T03:07:39.658Z,-2.28
2023-02-17T03:10:09.032Z,-2.31
2023-02-17T03:12:38.224Z,-2.34
2023-02-17T03:15:12.559Z,-2.34
2023-02-17T03:17:40.716Z,-2.35
2023-02-17T03:20:09.639Z,-2.38
2023-02-17T03:22:42.860Z,-2.37
2023-02-17T03:25:10.857Z,-2.38
2023-02-17T03:27:38.842Z,-2.38
2023-02-17T03:30:08.384Z,-2.40
2023-02-17T03:32:36.602Z,-2.40
2023-02-17T03:35:04.836Z,-2.40
2023-02-17T03:37:32.849Z,-2.39
2023-02-17T03:40:00.796Z,-2.36
2023-02-17T03:42:28.795Z,-2.36
2023-02-17T03:44:56.875Z,-2.36
2023-02-17T03:47:24.833Z,-2.36
2023-02-17T03:49:52.882Z,-2.36
2023-02-17T03:52:20.811Z,-2.39
2023-02-17T03:54:48.760Z,-2.41
2023-02-17T03:57:16.855Z,-2.41
2023-02-17T03:59:44.757Z,-2.45
2023-02-17T04:02:12.668Z,-2.48
2023-02-17T04:04:40.782Z,-2.53
2023-02-17T04:07:08.675Z,-2.54
2023-02-17T04:09:36.807Z,-2.54
2023-02-17T04:12:05.117Z,-2.55
2023-02-17T04:14:33.107Z,-2.60
2023-02-17T04:17:01.099Z,-2.65
2023-02-17T04:19:29.071Z,-2.69
2023-02-17T04:21:57.245Z,-2.74
2023-02-17T04:24:25.218Z,-2.75
2023-02-17T04:26:53.226Z,-2.81
2023-02-17T04:29:21.138Z,-2.82
2023-02-17T04:31:49.175Z,-2.83
2023-02-17T04:34:17.218Z,-2.85
2023-02-17T04:36:45.118Z,-2.88
2023-02-17T04:39:13.023Z,-2.89
2023-02-17T04:41:40.993Z,-2.90
2023-02-17T04:44:08.888Z,-2.93
2023-02-17T04:46:36.864Z,-2.93
2023-02-17T04:49:04.814Z,-2.91
2023-02-17T04:51:32.680Z,-2.90
2023-02-17T04:54:00.662Z,-2.88
2023-02-17T04:56:28.594Z,-2.88
2023-02-17T04:58:56.608Z,-2.89
2023-02-17T05:01:24.595Z,-2.90
2023-02-17T05:03:52.952Z,-2.88
2023-02-17T05:06:20.820Z,-2.86
2023-02-17T05:08:50.693Z,-2.85
2023-02-17T05:11:18.567Z,-2.84
2023-02-17T05:13:46.558Z,-2.85
2023-02-17T05:16:14.686Z,-2.83
2023-02-17T05:18:42.671Z,-2.82
2023-02-17T05:21:10.643Z,-2.86
2023-02-17T05:23:41.416Z,-2.85
2023-02-17T05:26:09.474Z,-2.80
2023-02-17T05:28:37.789Z,-2.75
2023-02-17T05:31:06.722Z,-2.77
2023-02-17T05:33:34.954Z,-2.78
2023-02-17T05:36:04.760Z,-2.81
2023-02-17T05:38:33.353Z,-2.85
2023-02-17T05:41:01.308Z,-2.82
2023-02-17T05:43:29.465Z,-2.82
2023-02-17T05:46:01.675Z,-2.83
2023-02-17T05:48:29.541Z,-2.75
2023-02-17T05:50:57.610Z,-2.70
2023-02-17T05:53:25.578Z,-2.67
2023-02-17T05:55:53.762Z,-2.59
2023-02-17T05:58:21.937Z,-2.60
2023-02-17T06:00:50.237Z,-2.56
2023-02-17T06:03:18.198Z,-2.52
2023-02-17T06:05:46.838Z,-2.43
2023-02-17T06:08:14.820Z,-2.39
2023-02-17T06:10:43.631Z,-2.33
2023-02-17T06:13:11.934Z,-2.22
2023-02-17T06:15:40.899Z,-2.08
2023-02-17T06:18:08.945Z,-1.90
2023-02-17T06:20:36.859Z,-1.70
2023-02-17T06:23:05.032Z,-1.61
2023-02-17T06:25:33.047Z,-1.48
2023-02-17T06:28:01.045Z,-1.33
2023-02-17T06:30:29.229Z,-1.28
2023-02-17T06:32:58.458Z,-1.16
2023-02-17T06:35:26.757Z,-1.09
2023-02-17T06:37:54.965Z,-1.06
2023-02-17T06:40:23.692Z,-0.98
2023-02-17T06:42:51.684Z,-0.89
2023-02-17T06:45:20.254Z,-0.80
2023-02-17T06:47:48.427Z,-0.74
2023-02-17T06:50:16.387Z,-0.73
2023-02-17T06:52:44.612Z,-0.58
2023-02-17T06:55:12.712Z,-0.48
2023-02-17T06:57:40.834Z,-0.40
2023-02-17T07:00:09.058Z,-0.25
2023-02-17T07:02:40.325Z,-0.08
2023-02-17T07:05:08.687Z,0.09
2023-02-17T07:07:36.812Z,0.23
2023-02-17T07:10:05.618Z,0.36
2023-02-17T07:12:33.852Z,0.56
2023-02-17T07:15:01.795Z,0.78
2023-02-17T07:17:30.063Z,1.01
2023-02-17T07:19:58.092Z,1.19
2023-02-17T07:22:26.984Z,1.35
2023-02-17T07:24:54.994Z,1.53
2023-02-17T07:27:23.156Z,1.70
2023-02-17T07:29:51.298Z,1.86
2023-02-17T07:32:19.198Z,2.05
2023-02-17T07:34:47.401Z,2.22
2023-02-17T07:37:15.515Z,2.36
2023-02-17T07:39:43.666Z,2.53
2023-02-17T07:42:11.963Z,2.67
2023-02-17T07:44:40.751Z,2.88
2023-02-17T07:47:09.130Z,3.08
2023-02-17T07:49:37.235Z,3.27
2023-02-17T07:52:06.042Z,3.49
2023-02-17T07:54:34.176Z,3.71
2023-02-17T07:57:02.133Z,3.94
2023-02-17T07:59:30.217Z,4.19
2023-02-17T08:01:58.352Z,4.44
2023-02-17T08:04:26.738Z,4.73
2023-02-17T08:06:55.158Z,4.99
2023-02-17T08:09:42.018Z,5.20
2023-02-17T08:12:33.839Z,5.45
2023-02-17T08:15:02.549Z,5.66
2023-02-17T08:17:30.952Z,5.89
2023-02-17T08:20:05.854Z,6.11
2023-02-17T08:22:36.925Z,6.37
2023-02-17T08:25:06.454Z,6.57
2023-02-17T08:27:34.722Z,6.77
2023-02-17T08:30:03.685Z,7.00
2023-02-17T08:32:31.984Z,7.23
2023-02-17T08:35:00.012Z,7.41
2023-02-17T08:37:30.314Z,7.55
2023-02-17T08:40:00.442Z,7.66
2023-02-17T08:42:29.234Z,7.73
2023-02-17T08:44:57.278Z,7.81
2023-02-17T08:47:25.337Z,7.89
2023-02-17T08:49:53.501Z,7.95
2023-02-17T08:52:21.788Z,8.07
2023-02-17T08:54:52.557Z,8.16
2023-02-17T08:57:21.858Z,8.25
2023-02-17T08:59:49.988Z,8.33
2023-02-17T09:02:18.573Z,8.33
2023-02-17T09:04:47.214Z,8.32
2023-02-17T09:07:17.016Z,8.35
2023-02-17T09:09:45.486Z,8.43
2023-02-17T09:12:13.656Z,8.49
2023-02-17T09:14:42.155Z,8.52
2023-02-17T09:17:10.502Z,8.55
2023-02-17T09:19:38.964Z,8.61
2023-02-17T09:22:07.348Z,8.63
2023-02-17T09:24:38.893Z,8.72
2023-02-17T09:27:07.186Z,8.74
2023-02-17T09:29:36.887Z,8.75
2023-02-17T09:32:08.731Z,8.84
2023-02-17T09:34:38.061Z,8.95
2023-02-17T09:37:11.409Z,9.03
2023-02-17T09:39:39.556Z,9.08
2023-02-17T09:42:16.246Z,9.13
2023-02-17T09:44:47.644Z,9.14
2023-02-17T09:47:19.366Z,9.19
2023-02-17T09:49:51.312Z,9.16
2023-02-17T09:52:32.053Z,9.11
2023-02-17T09:55:04.511Z,9.10
2023-02-17T09:57:36.203Z,9.07
2023-02-17T10:00:16.477Z,9.07
2023-02-17T10:03:04.915Z,9.08
2023-02-17T10:05:42.363Z,9.07
2023-02-17T10:08:10.597Z,9.08
2023-02-17T10:10:42.622Z,9.13
2023-02-17T10:13:15.163Z,9.23
2023-02-17T10:15:44.989Z,9.31
2023-02-17T10:18:16.706Z,9.45
2023-02-17T10:20:48.133Z,9.48
2023-02-17T10:23:19.372Z,9.47
2023-02-17T10:26:06.391Z,9.56
2023-02-17T10:28:44.039Z,9.65
2023-02-17T10:31:19.847Z,9.71
2023-02-17T10:34:08.082Z,9.78
2023-02-17T10:36:36.052Z,9.87
2023-02-17T10:39:14.675Z,9.92
2023-02-17T10:41:45.871Z,9.97
2023-02-17T10:44:17.166Z,10.02
2023-02-17T10:46:46.125Z,9.98
2023-02-17T10:49:27.410Z,9.91
2023-02-17T10:52:01.137Z,9.90
2023-02-17T10:54:38.079Z,9.99
2023-02-17T10:57:09.428Z,10.00
2023-02-17T10:59:41.720Z,9.89
2023-02-17T11:02:19.010Z,9.85
2023-02-17T11:04:49.448Z,9.96
2023-02-17T11:07:24.007Z,10.05
2023-02-17T11:09:53.722Z,10.12
2023-02-17T11:12:25.635Z,9.96
2023-02-17T11:14:55.211Z,9.90
2023-02-17T11:17:28.580Z,9.85
2023-02-17T11:19:58.719Z,9.82
2023-02-17T11:22:48.213Z,9.74
2023-02-17T11:25:25.137Z,9.70
2023-02-17T11:27:54.864Z,9.61
2023-02-17T11:30:23.920Z,9.53
2023-02-17T11:32:52.699Z,9.45
2023-02-17T11:35:36.222Z,9.35
2023-02-17T11:38:12.097Z,9.26
2023-02-17T11:40:40.124Z,9.15
2023-02-17T11:43:08.449Z,9.06
2023-02-17T11:45:41.389Z,8.97
2023-02-17T11:48:29.998Z,8.92
2023-02-17T11:51:00.384Z,8.83
2023-02-17T11:53:49.752Z,8.77
2023-02-17T11:56:19.608Z,8.69
2023-02-17T11:58:50.429Z,8.63
2023-02-17T12:01:30.254Z,8.62
2023-02-17T12:04:10.532Z,8.56
2023-02-17T12:06:40.142Z,8.59
2023-02-17T12:09:11.074Z,8.55
2023-02-17T12:11:48.578Z,8.50
2023-02-17T12:14:31.132Z,8.47
2023-02-17T12:17:19.450Z,8.44
2023-02-17T12:19:57.210Z,8.38
2023-02-17T12:22:33.564Z,8.38
2023-02-17T12:25:01.577Z,8.38
2023-02-17T12:27:53.820Z,8.28
2023-02-17T12:30:35.655Z,8.22
2023-02-17T12:33:22.455Z,8.11
2023-02-17T12:35:55.488Z,8.00
2023-02-17T12:38:39.311Z,7.95
2023-02-17T12:41:13.410Z,7.93
2023-02-17T12:43:47.317Z,7.92
2023-02-17T12:46:20.440Z,7.93
2023-02-17T12:48:54.344Z,7.93
2023-02-17T12:51:22.379Z,7.90
2023-02-17T12:54:02.739Z,7.89
2023-02-17T12:56:33.753Z,7.89
2023-02-17T12:59:15.843Z,7.90
2023-02-17T13:01:48.769Z,7.91
2023-02-17T13:04:18.359Z,7.87
2023-02-17T13:07:02.133Z,7.87
2023-02-17T13:09:30.248Z,7.87
2023-02-17T13:12:16.859Z,7.89
2023-02-17T13:14:50.198Z,7.87
2023-02-17T13:17:26.486Z,7.89
2023-02-17T13:20:04.051Z,7.88
2023-02-17T13:22:32.491Z,7.86
2023-02-17T13:25:01.024Z,7.81
2023-02-17T13:27:29.060Z,7.85
2023-02-17T13:29:59.873Z,7.86
2023-02-17T13:32:31.910Z,7.88
2023-02-17T13:35:07.660Z,7.86
2023-02-17T13:37:35.651Z,7.89
2023-02-17T13:40:16.254Z,7.82
2023-02-17T13:42:44.692Z,7.79
2023-02-17T13:45:31.681Z,7.76
2023-02-17T13:48:19.259Z,7.68
2023-02-17T13:50:52.271Z,7.62
2023-02-17T13:53:20.666Z,7.58
2023-02-17T13:55:48.826Z,7.58
2023-02-17T13:58:22.097Z,7.58
2023-02-17T14:00:51.203Z,7.58
2023-02-17T14:03:21.846Z,7.58
2023-02-17T14:05:50.516Z,7.66
2023-02-17T14:08:30.475Z,7.72
2023-02-17T14:10:59.800Z,7.85
2023-02-17T14:13:27.959Z,7.96
2023-02-17T14:15:58.092Z,8.05
2023-02-17T14:18:40.519Z,8.10
2023-02-17T14:21:10.613Z,8.14
2023-02-17T14:23:57.427Z,8.17
2023-02-17T14:26:44.181Z,8.20
2023-02-17T14:29:13.550Z,8.22
2023-02-17T14:31:43.352Z,8.22
2023-02-17T14:34:25.626Z,8.24
2023-02-17T14:36:53.859Z,8.23
2023-02-17T14:39:22.385Z,8.22
2023-02-17T14:41:50.511Z,8.23
2023-02-17T14:44:18.596Z,8.26
2023-02-17T14:46:46.598Z,8.27
2023-02-17T14:49:14.744Z,8.25
2023-02-17T14:51:42.846Z,8.21
2023-02-17T14:54:19.954Z,8.16
2023-02-17T14:56:47.848Z,7.97
2023-02-17T14:59:15.963Z,7.96
2023-02-17T15:01:43.932Z,7.87
2023-02-17T15:04:12.067Z,7.76
2023-02-17T15:06:45.493Z,7.72
2023-02-17T15:09:15.353Z,7.72
2023-02-17T15:11:45.821Z,7.72
2023-02-17T15:14:15.248Z,7.63
2023-02-17T15:16:43.755Z,7.60
2023-02-17T15:19:12.434Z,7.57
2023-02-17T15:21:43.481Z,7.54
2023-02-17T15:24:27.995Z,7.50
2023-02-17T15:26:58.173Z,7.48
2023-02-17T15:29:27.599Z,7.46
2023-02-17T15:31:57.277Z,7.43
2023-02-17T15:34:31.828Z,7.42
2023-02-17T15:37:00.690Z,7.41
2023-02-17T15:39:28.791Z,7.41
2023-02-17T15:41:59.327Z,7.40
2023-02-17T15:44:32.034Z,7.36
2023-02-17T15:47:00.684Z,7.31
2023-02-17T15:49:28.760Z,7.29
2023-02-17T15:51:56.751Z,7.26
2023-02-17T15:54:24.660Z,7.24
2023-02-17T15:56:52.871Z,7.22
2023-02-17T15:59:26.807Z,7.20
2023-02-17T16:01:56.377Z,7.17
2023-02-17T16:04:24.263Z,7.14
2023-02-17T16:06:52.377Z,7.11
2023-02-17T16:09:21.753Z,7.09
2023-02-17T16:11:51.826Z,7.04
2023-02-17T16:14:33.587Z,7.00
2023-02-17T16:17:02.465Z,6.98
2023-02-17T16:19:31.767Z,6.96
2023-02-17T16:21:59.842Z,6.91
2023-02-17T16:24:28.212Z,6.88
2023-02-17T16:26:56.522Z,6.86
2023-02-17T16:29:24.592Z,6.85
2023-02-17T16:31:52.864Z,6.83
2023-02-17T16:34:22.380Z,6.83
2023-02-17T16:36:51.739Z,6.85
2023-02-17T16:39:21.611Z,6.81
2023-02-17T16:41:49.775Z,6.78
2023-02-17T16:44:19.369Z,6.78
2023-02-17T16:46:48.848Z,6.80
2023-02-17T16:49:19.454Z,6.83
2023-02-17T16:51:47.842Z,6.80
2023-02-17T16:54:17.134Z,6.69
2023-02-17T16:56:49.616Z,6.60
2023-02-17T16:59:19.955Z,6.52
2023-02-17T17:01:48.844Z,6.39
2023-02-17T17:04:17.538Z,6.27
2023-02-17T17:06:49.887Z,6.28
2023-02-17T17:09:22.111Z,6.28
2023-02-17T17:11:50.442Z,6.24
2023-02-17T17:14:20.657Z,6.16
2023-02-17T17:16:52.014Z,6.14
2023-02-17T17:19:19.886Z,6.15
2023-02-17T17:21:49.449Z,6.15
2023-02-17T17:24:17.820Z,6.13
2023-02-17T17:26:46.825Z,6.17
2023-02-17T17:29:15.718Z,6.14
2023-02-17T17:31:45.002Z,6.19
2023-02-17T17:34:13.353Z,6.35
2023-02-17T17:36:42.824Z,6.50
2023-02-17T17:39:14.891Z,6.61
2023-02-17T17:41:43.186Z,6.66
2023-02-17T17:44:11.199Z,6.67
2023-02-17T17:46:39.922Z,6.71
2023-02-17T17:49:10.608Z,6.71
2023-02-17T17:51:39.084Z,6.73
2023-02-17T17:54:07.761Z,6.68
2023-02-17T17:56:43.123Z,6.71
2023-02-17T17:59:12.616Z,6.71
2023-02-17T18:01:40.644Z,6.67
2023-02-17T18:04:09.606Z,6.64
2023-02-17T18:06:40.814Z,6.63
2023-02-17T18:09:13.303Z,6.64
2023-02-17T18:11:45.182Z,6.62
2023-02-17T18:14:14.334Z,6.49
2023-02-17T18:16:43.967Z,6.35
2023-02-17T18:19:12.574Z,6.43
2023-02-17T18:21:40.584Z,6.39
2023-02-17T18:24:08.550Z,6.43
2023-02-17T18:26:36.568Z,6.48
2023-02-17T18:29:04.826Z,6.42
2023-02-17T18:31:32.872Z,6.40
2023-02-17T18:34:01.057Z,6.34
2023-02-17T18:36:29.194Z,6.28
2023-02-17T18:38:57.218Z,6.34
2023-02-17T18:41:26.573Z,6.38
2023-02-17T18:43:54.845Z,6.40
2023-02-17T18:46:24.161Z,6.33
2023-02-17T18:48:54.401Z,6.36
2023-02-17T18:51:23.388Z,6.37
2023-02-17T18:53:51.552Z,6.35
2023-02-17T18:56:21.780Z,6.37
2023-02-17T18:58:50.861Z,6.42
2023-02-17T19:01:23.650Z,6.55
2023-02-17T19:03:52.124Z,6.57
2023-02-17T19:06:21.832Z,6.52
2023-02-17T19:08:50.999Z,6.55
2023-02-17T19:11:19.942Z,6.51
2023-02-17T19:13:48.162Z,6.70
2023-02-17T19:16:17.802Z,6.76
2023-02-17T19:18:46.516Z,6.77
2023-02-17T19:21:15.058Z,6.77
2023-02-17T19:23:43.351Z,6.79
2023-02-17T19:26:12.446Z,6.81
2023-02-17T19:28:40.445Z,6.85
2023-02-17T19:31:10.335Z,6.90
2023-02-17T19:33:38.802Z,6.83
2023-02-17T19:36:10.757Z,6.78
2023-02-17T19:38:39.428Z,6.81
2023-02-17T19:41:08.465Z,6.85
2023-02-17T19:43:36.969Z,6.91
2023-02-17T19:46:05.485Z,6.89
2023-02-17T19:48:34.558Z,7.02
2023-02-17T19:51:05.501Z,6.96
2023-02-17T19:53:34.246Z,6.94
2023-02-17T19:56:13.368Z,7.07
2023-02-17T19:58:42.185Z,7.16
2023-02-17T20:01:14.821Z,7.24
2023-02-17T20:03:42.845Z,7.21
2023-02-17T20:06:12.470Z,7.16
2023-02-17T20:08:40.497Z,7.17
2023-02-17T20:11:09.555Z,7.21
2023-02-17T20:13:45.708Z,7.27
2023-02-17T20:16:16.036Z,7.25
2023-02-17T20:18:45.584Z,7.27
2023-02-17T20:21:15.839Z,7.28
2023-02-17T20:23:43.909Z,7.28
2023-02-17T20:26:16.573Z,7.31
2023-02-17T20:28:44.954Z,7.30
2023-02-17T20:31:13.150Z,7.23
2023-02-17T20:33:41.416Z,7.23
2023-02-17T20:36:10.210Z,7.28
2023-02-17T20:38:39.417Z,7.24
2023-02-17T20:41:08.728Z,7.23
2023-02-17T20:43:38.246Z,7.19
2023-02-17T20:46:06.604Z,7.23
2023-02-17T20:48:35.107Z,7.20
2023-02-17T20:51:04.243Z,7.15
2023-02-17T20:53:32.174Z,7.14
2023-02-17T20:56:00.194Z,7.09
2023-02-17T20:58:28.116Z,6.93
2023-02-17T21:00:56.183Z,6.95
2023-02-17T21:03:24.090Z,6.95
2023-02-17T21:05:52.095Z,6.88
2023-02-17T21:08:20.160Z,7.00
2023-02-17T21:10:48.106Z,7.13
2023-02-17T21:13:15.954Z,7.12
2023-02-17T21:15:44.093Z,7.15
2023-02-17T21:18:11.984Z,7.36
2023-02-17T21:20:39.839Z,7.52
2023-02-17T21:23:08.340Z,7.62
2023-02-17T21:25:36.245Z,7.72
2023-02-17T21:28:04.302Z,7.76
2023-02-17T21:30:32.578Z,7.81
2023-02-17T21:33:01.064Z,7.89
2023-02-17T21:35:29.040Z,8.07
2023-02-17T21:37:57.147Z,8.29
2023-02-17T21:40:25.134Z,8.36
2023-02-17T21:43:11.538Z,8.40
2023-02-17T21:45:39.617Z,8.31
2023-02-17T21:48:07.879Z,8.26
2023-02-17T21:50:36.064Z,8.27
2023-02-17T21:53:03.989Z,8.30
2023-02-17T21:55:32.135Z,8.27
2023-02-17T21:58:00.113Z,8.28
2023-02-17T22:00:28.255Z,8.36
2023-02-17T22:02:56.252Z,8.35
2023-02-17T22:05:24.248Z,8.36
2023-02-17T22:07:52.213Z,8.35
2023-02-17T22:10:20.347Z,8.37
2023-02-17T22:12:48.377Z,8.45
2023-02-17T22:15:16.354Z,8.51
2023-02-17T22:17:44.539Z,8.53
2023-02-17T22:20:12.676Z,8.55
2023-02-17T22:22:40.712Z,8.54
2023-02-17T22:25:08.785Z,8.53
2023-02-17T22:27:36.903Z,8.40
2023-02-17T22:30:05.360Z,8.30
2023-02-17T22:32:33.428Z,8.27
2023-02-17T22:35:01.315Z,8.28
2023-02-17T22:37:29.319Z,8.22
2023-02-17T22:39:57.264Z,8.06
2023-02-17T22:42:25.195Z,8.07
2023-02-17T22:44:53.224Z,8.03
2023-02-17T22:47:22.746Z,7.91
2023-02-17T22:49:50.813Z,7.83
2023-02-17T22:52:18.712Z,7.81
2023-02-17T22:54:46.756Z,7.70
2023-02-17T22:57:15.084Z,7.66
2023-02-17T22:59:43.138Z,7.72
2023-02-17T23:02:11.113Z,7.77
2023-02-17T23:04:39.527Z,7.76
2023-02-17T23:07:07.463Z,7.78
2023-02-17T23:09:35.613Z,7.81
2023-02-17T23:12:03.601Z,7.82
2023-02-17T23:14:36.022Z,7.90
2023-02-17T23:17:08.634Z,7.98
2023-02-17T23:19:37.046Z,7.93
2023-02-17T23:22:06.435Z,7.92
2023-02-17T23:24:35.004Z,7.92
2023-02-17T23:27:03.402Z,7.89
2023-02-17T23:29:32.001Z,7.86
2023-02-17T23:32:00.063Z,7.87
2023-02-17T23:34:28.661Z,7.91
2023-02-17T23:36:56.653Z,7.87
2023-02-17T23:39:24.685Z,7.88
2023-02-17T23:41:52.539Z,7.86
2023-02-17T23:44:20.623Z,7.90
2023-02-17T23:46:48.649Z,7.81
2023-02-17T23:49:17.151Z,7.73
2023-02-17T23:51:47.043Z,7.61
2023-02-17T23:54:15.460Z,7.55
2023-02-17T23:56:43.852Z,7.50
2023-02-17T23:59:12.166Z,7.49
